createdAt,value
2022-10-07T00:00:41.200Z,1165
2022-10-07T00:01:33.073Z,1173
2022-10-07T00:02:24.972Z,1177
2022-10-07T00:03:16.630Z,1178
2022-10-07T00:04:08.399Z,1178
2022-10-07T00:05:00.159Z,1170
2022-10-07T00:05:52.012Z,1167
2022-10-07T00:06:43.817Z,1172
2022-10-07T00:07:35.633Z,1175
2022-10-07T00:08:27.433Z,1181
2022-10-07T00:09:19.253Z,1186
2022-10-07T00:10:11.092Z,1187
2022-10-07T00:11:02.828Z,1186
2022-10-07T00:11:54.652Z,1189
2022-10-07T00:12:46.457Z,1192
2022-10-07T00:13:38.271Z,1190
2022-10-07T00:14:29.958Z,1198
2022-10-07T00:15:21.863Z,1197
2022-10-07T00:16:13.637Z,1198
2022-10-07T00:17:05.529Z,1204
2022-10-07T00:17:57.269Z,1214
2022-10-07T00:18:49.089Z,1214
2022-10-07T00:19:40.874Z,1206
2022-10-07T00:20:32.701Z,1211
2022-10-07T00:21:24.479Z,1218
2022-10-07T00:22:16.295Z,1213
2022-10-07T00:23:08.124Z,1214
2022-10-07T00:23:59.848Z,1210
2022-10-07T00:24:51.722Z,1211
2022-10-07T00:25:43.448Z,1225
2022-10-07T00:26:35.314Z,1226
2022-10-07T00:27:27.125Z,1234
2022-10-07T00:28:18.960Z,1223
2022-10-07T00:29:10.726Z,1223
2022-10-07T00:30:02.501Z,1224
2022-10-07T00:30:54.374Z,1239
2022-10-07T00:31:46.132Z,1230
2022-10-07T00:32:37.938Z,1233
2022-10-07T00:33:29.732Z,1230
2022-10-07T00:34:21.542Z,1232
2022-10-07T00:35:13.340Z,1237
2022-10-07T00:36:05.071Z,1239
2022-10-07T00:36:56.921Z,1238
2022-10-07T00:37:48.696Z,1245
2022-10-07T00:38:40.402Z,1245
2022-10-07T00:39:32.280Z,1249
2022-10-07T00:40:24.077Z,1247
2022-10-07T00:41:15.895Z,1249
2022-10-07T00:42:07.697Z,1254
2022-10-07T00:42:59.513Z,1263
2022-10-07T00:43:51.290Z,1270
2022-10-07T00:44:43.124Z,1273
2022-10-07T00:45:34.975Z,1267
2022-10-07T00:46:26.737Z,1255
2022-10-07T00:47:18.498Z,1247
2022-10-07T00:48:10.242Z,1230
2022-10-07T00:49:02.117Z,1237
2022-10-07T00:49:53.915Z,1210
2022-10-07T00:50:45.712Z,1196
2022-10-07T00:51:37.537Z,1197
2022-10-07T00:52:29.321Z,1192
2022-10-07T00:53:21.127Z,1171
2022-10-07T00:54:12.944Z,1165
2022-10-07T00:55:04.726Z,1164
2022-10-07T00:55:56.516Z,1160
2022-10-07T00:56:48.342Z,1135
2022-10-07T00:57:40.040Z,1135
2022-10-07T00:58:31.929Z,1128
2022-10-07T00:59:23.732Z,1123
2022-10-07T01:00:15.539Z,1106
2022-10-07T01:01:07.363Z,1112
2022-10-07T01:01:59.174Z,1112
2022-10-07T01:02:51.031Z,1088
2022-10-07T01:03:42.730Z,1083
2022-10-07T01:04:34.507Z,1088
2022-10-07T01:05:26.344Z,1089
2022-10-07T01:06:18.130Z,1089
2022-10-07T01:07:09.882Z,1075
2022-10-07T01:08:01.717Z,1070
2022-10-07T01:08:53.518Z,1084
2022-10-07T01:09:45.329Z,1062
2022-10-07T01:10:37.118Z,1060
2022-10-07T01:11:28.905Z,1047
2022-10-07T01:12:20.712Z,1037
2022-10-07T01:13:12.514Z,1054
2022-10-07T01:14:04.335Z,1035
2022-10-07T01:14:56.107Z,1029
2022-10-07T01:15:47.986Z,1024
2022-10-07T01:16:39.749Z,1014
2022-10-07T01:17:31.543Z,1010
2022-10-07T01:18:23.312Z,999
2022-10-07T01:19:15.124Z,1022
2022-10-07T01:20:06.914Z,1016
2022-10-07T01:20:58.731Z,1010
2022-10-07T01:21:50.452Z,999
2022-10-07T01:22:42.311Z,994
2022-10-07T01:23:34.112Z,992
2022-10-07T01:24:25.914Z,991
2022-10-07T01:25:17.727Z,1006
2022-10-07T01:26:09.506Z,969
2022-10-07T01:27:01.301Z,983
2022-10-07T01:27:53.103Z,974
2022-10-07T01:28:44.975Z,969
2022-10-07T01:29:36.741Z,965
2022-10-07T01:30:28.552Z,957
2022-10-07T01:31:20.311Z,961
2022-10-07T01:32:12.112Z,946
2022-10-07T01:33:03.908Z,961
2022-10-07T01:33:55.685Z,953
2022-10-07T01:34:47.509Z,951
2022-10-07T01:35:39.292Z,955
2022-10-07T01:36:31.109Z,943
2022-10-07T01:37:22.868Z,942
2022-10-07T01:38:14.689Z,939
2022-10-07T01:39:06.482Z,931
2022-10-07T01:39:58.287Z,931
2022-10-07T01:40:50.020Z,932
2022-10-07T01:41:41.891Z,931
2022-10-07T01:42:33.678Z,942
2022-10-07T01:43:25.483Z,914
2022-10-07T01:44:17.268Z,978
2022-10-07T01:45:09.069Z,1002
2022-10-07T01:46:00.944Z,1042
2022-10-07T01:46:52.658Z,1030
2022-10-07T01:47:44.734Z,1014
2022-10-07T01:48:36.253Z,1048
2022-10-07T01:49:28.040Z,1073
2022-10-07T01:50:19.833Z,1074
2022-10-07T01:51:11.626Z,1058
2022-10-07T01:52:03.437Z,1058
2022-10-07T01:52:55.223Z,1081
2022-10-07T01:53:47.029Z,1103
2022-10-07T01:54:38.832Z,1119
2022-10-07T01:55:30.615Z,1124
2022-10-07T01:56:22.389Z,1111
2022-10-07T01:57:14.197Z,1116
2022-10-07T01:58:05.966Z,1122
2022-10-07T01:58:57.776Z,1107
2022-10-07T01:59:49.556Z,1106
2022-10-07T02:00:41.365Z,1112
2022-10-07T02:01:33.206Z,1109
2022-10-07T02:02:24.948Z,1102
2022-10-07T02:03:16.853Z,1081
2022-10-07T02:04:08.697Z,1096
2022-10-07T02:05:00.268Z,1074
2022-10-07T02:05:52.140Z,1066
2022-10-07T02:06:43.917Z,1084
2022-10-07T02:07:35.728Z,1070
2022-10-07T02:08:27.510Z,1072
2022-10-07T02:09:19.306Z,1079
2022-10-07T02:10:11.096Z,1075
2022-10-07T02:11:02.901Z,1064
2022-10-07T02:11:54.680Z,1062
2022-10-07T02:12:46.487Z,1064
2022-10-07T02:13:38.279Z,1064
2022-10-07T02:14:29.999Z,1067
2022-10-07T02:15:21.862Z,1047
2022-10-07T02:16:13.777Z,1056
2022-10-07T02:17:05.487Z,1032
2022-10-07T02:17:57.260Z,1040
2022-10-07T02:18:49.070Z,1030
2022-10-07T02:19:40.868Z,1045
2022-10-07T02:20:32.620Z,1042
2022-10-07T02:21:24.453Z,1028
2022-10-07T02:22:16.249Z,1044
2022-10-07T02:23:08.046Z,1036
2022-10-07T02:23:59.820Z,1023
2022-10-07T02:24:51.620Z,1024
2022-10-07T02:25:43.425Z,1019
2022-10-07T02:26:35.217Z,1027
2022-10-07T02:27:27.005Z,1003
2022-10-07T02:28:18.871Z,1021
2022-10-07T02:29:10.577Z,1003
2022-10-07T02:30:02.324Z,1012
2022-10-07T02:30:54.233Z,1001
2022-10-07T02:31:46.013Z,989
2022-10-07T02:32:37.788Z,997
2022-10-07T02:33:29.607Z,985
2022-10-07T02:34:21.387Z,975
2022-10-07T02:35:13.196Z,997
2022-10-07T02:36:04.972Z,996
2022-10-07T02:36:56.795Z,978
2022-10-07T02:37:48.568Z,985
2022-10-07T02:38:40.295Z,993
2022-10-07T02:39:32.173Z,971
2022-10-07T02:40:23.974Z,976
2022-10-07T02:41:15.752Z,980
2022-10-07T02:42:07.578Z,977
2022-10-07T02:42:59.372Z,968
2022-10-07T02:43:51.164Z,967
2022-10-07T02:44:42.946Z,961
2022-10-07T02:45:34.750Z,958
2022-10-07T02:46:26.630Z,962
2022-10-07T02:47:18.346Z,967
2022-10-07T02:48:10.031Z,959
2022-10-07T02:49:01.931Z,954
2022-10-07T02:49:53.718Z,941
2022-10-07T02:50:45.530Z,952
2022-10-07T02:51:37.324Z,970
2022-10-07T02:52:29.128Z,954
2022-10-07T02:53:20.818Z,944
2022-10-07T02:54:12.716Z,941
2022-10-07T02:55:04.495Z,944
2022-10-07T02:55:56.326Z,947
2022-10-07T02:56:48.079Z,947
2022-10-07T02:57:39.927Z,943
2022-10-07T02:58:31.679Z,932
2022-10-07T02:59:23.478Z,932
2022-10-07T03:00:15.269Z,931
2022-10-07T03:01:07.062Z,936
2022-10-07T03:01:59.002Z,928
2022-10-07T03:02:50.641Z,937
2022-10-07T03:03:42.507Z,942
2022-10-07T03:04:34.256Z,927
2022-10-07T03:05:26.103Z,925
2022-10-07T03:06:17.852Z,915
2022-10-07T03:07:09.618Z,937
2022-10-07T03:08:01.354Z,924
2022-10-07T03:08:53.204Z,934
2022-10-07T03:09:45.016Z,927
2022-10-07T03:10:36.807Z,935
2022-10-07T03:11:28.635Z,941
2022-10-07T03:12:20.324Z,930
2022-10-07T03:13:12.192Z,921
2022-10-07T03:14:03.976Z,930
2022-10-07T03:14:55.774Z,944
2022-10-07T03:15:47.632Z,921
2022-10-07T03:16:39.327Z,930
2022-10-07T03:17:31.155Z,917
2022-10-07T03:18:22.954Z,924
2022-10-07T03:19:14.759Z,919
2022-10-07T03:20:06.555Z,945
2022-10-07T03:20:58.322Z,918
2022-10-07T03:21:50.060Z,911
2022-10-07T03:22:41.939Z,907
2022-10-07T03:23:33.720Z,906
2022-10-07T03:24:25.513Z,912
2022-10-07T03:25:17.309Z,919
2022-10-07T03:26:09.103Z,924
2022-10-07T03:27:00.792Z,913
2022-10-07T03:27:52.687Z,908
2022-10-07T03:28:44.585Z,897
2022-10-07T03:29:36.283Z,893
2022-10-07T03:30:28.092Z,899
2022-10-07T03:31:19.927Z,884
2022-10-07T03:32:11.682Z,906
2022-10-07T03:33:03.478Z,906
2022-10-07T03:33:55.267Z,882
2022-10-07T03:34:47.049Z,900
2022-10-07T03:35:38.867Z,882
2022-10-07T03:36:30.571Z,885
2022-10-07T03:37:22.458Z,902
2022-10-07T03:38:14.239Z,908
2022-10-07T03:39:06.042Z,887
2022-10-07T03:39:57.828Z,897
2022-10-07T03:40:49.645Z,887
2022-10-07T03:41:41.422Z,877
2022-10-07T03:42:33.213Z,879
2022-10-07T03:43:25.022Z,891
2022-10-07T03:44:16.821Z,882
2022-10-07T03:45:08.591Z,884
2022-10-07T03:46:00.396Z,878
2022-10-07T03:46:52.227Z,873
2022-10-07T03:47:44.234Z,871
2022-10-07T03:48:35.788Z,868
2022-10-07T03:49:27.588Z,871
2022-10-07T03:50:19.351Z,869
2022-10-07T03:51:11.172Z,869
2022-10-07T03:52:02.940Z,860
2022-10-07T03:52:54.760Z,869
2022-10-07T03:53:46.546Z,860
2022-10-07T03:54:38.344Z,855
2022-10-07T03:55:30.054Z,864
2022-10-07T03:56:21.931Z,868
2022-10-07T03:57:13.718Z,861
2022-10-07T03:58:05.512Z,865
2022-10-07T03:58:57.304Z,864
2022-10-07T03:59:49.118Z,856
2022-10-07T04:00:40.889Z,867
2022-10-07T04:01:32.822Z,857
2022-10-07T04:02:24.480Z,861
2022-10-07T04:03:16.349Z,854
2022-10-07T04:04:08.071Z,858
2022-10-07T04:04:59.875Z,849
2022-10-07T04:05:51.653Z,857
2022-10-07T04:06:43.465Z,862
2022-10-07T04:07:35.230Z,851
2022-10-07T04:08:27.053Z,857
2022-10-07T04:09:18.826Z,858
2022-10-07T04:10:10.547Z,862
2022-10-07T04:11:02.428Z,844
2022-10-07T04:11:54.230Z,854
2022-10-07T04:12:46.017Z,857
2022-10-07T04:13:38.107Z,846
2022-10-07T04:14:29.605Z,857
2022-10-07T04:15:21.409Z,848
2022-10-07T04:16:13.354Z,849
2022-10-07T04:17:04.983Z,838
2022-10-07T04:17:56.770Z,848
2022-10-07T04:18:48.582Z,837
2022-10-07T04:19:40.291Z,842
2022-10-07T04:20:32.159Z,842
2022-10-07T04:21:23.953Z,838
2022-10-07T04:22:15.748Z,849
2022-10-07T04:23:07.545Z,833
2022-10-07T04:23:59.343Z,837
2022-10-07T04:24:51.132Z,835
2022-10-07T04:25:42.940Z,838
2022-10-07T04:26:34.721Z,835
2022-10-07T04:27:50.174Z,825
2022-10-07T04:28:18.359Z,831
2022-10-07T04:29:10.083Z,829
2022-10-07T04:30:01.879Z,837
2022-10-07T04:30:53.698Z,839
2022-10-07T04:31:45.613Z,823
2022-10-07T04:32:37.277Z,834
2022-10-07T04:33:29.078Z,820
2022-10-07T04:34:20.833Z,821
2022-10-07T04:35:12.670Z,829
2022-10-07T04:36:04.454Z,835
2022-10-07T04:36:56.244Z,830
2022-10-07T04:37:48.425Z,830
2022-10-07T04:38:39.843Z,818
2022-10-07T04:39:56.222Z,815
2022-10-07T04:40:23.407Z,822
2022-10-07T04:41:15.240Z,810
2022-10-07T04:42:06.992Z,809
2022-10-07T04:42:58.798Z,817
2022-10-07T04:43:53.208Z,810
2022-10-07T04:44:42.391Z,812
2022-10-07T04:45:34.165Z,820
2022-10-07T04:46:26.055Z,816
2022-10-07T04:47:17.802Z,814
2022-10-07T04:48:09.555Z,816
2022-10-07T04:49:01.322Z,811
2022-10-07T04:49:53.156Z,811
2022-10-07T04:50:44.919Z,813
2022-10-07T04:51:36.731Z,815
2022-10-07T04:52:28.503Z,808
2022-10-07T04:53:20.221Z,803
2022-10-07T04:54:12.080Z,804
2022-10-07T04:55:03.873Z,801
2022-10-07T04:55:55.670Z,803
2022-10-07T04:56:47.475Z,792
2022-10-07T04:57:39.258Z,809
2022-10-07T04:58:31.060Z,809
2022-10-07T04:59:24.130Z,802
2022-10-07T05:00:14.689Z,805
2022-10-07T05:01:06.498Z,806
2022-10-07T05:01:58.327Z,812
2022-10-07T05:02:49.998Z,819
2022-10-07T05:03:41.815Z,823
2022-10-07T05:04:33.620Z,809
2022-10-07T05:05:25.418Z,817
2022-10-07T05:06:17.215Z,804
2022-10-07T05:07:09.007Z,810
2022-10-07T05:08:00.685Z,811
2022-10-07T05:08:52.578Z,807
2022-10-07T05:09:44.376Z,805
2022-10-07T05:10:36.166Z,798
2022-10-07T05:11:27.938Z,809
2022-10-07T05:12:19.754Z,793
2022-10-07T05:13:11.525Z,796
2022-10-07T05:14:03.333Z,806
2022-10-07T05:14:55.122Z,806
2022-10-07T05:15:46.917Z,806
2022-10-07T05:16:38.776Z,808
2022-10-07T05:17:30.432Z,802
2022-10-07T05:18:22.277Z,805
2022-10-07T05:19:14.078Z,800
2022-10-07T05:20:05.869Z,788
2022-10-07T05:20:57.686Z,788
2022-10-07T05:21:49.442Z,796
2022-10-07T05:22:41.259Z,794
2022-10-07T05:23:33.045Z,787
2022-10-07T05:24:24.851Z,792
2022-10-07T05:25:16.639Z,805
2022-10-07T05:26:08.431Z,798
2022-10-07T05:27:00.165Z,796
2022-10-07T05:27:51.900Z,795
2022-10-07T05:28:43.842Z,789
2022-10-07T05:29:35.583Z,798
2022-10-07T05:30:27.395Z,793
2022-10-07T05:31:19.212Z,787
2022-10-07T05:32:10.943Z,790
2022-10-07T05:33:02.744Z,791
2022-10-07T05:33:54.543Z,783
2022-10-07T05:34:46.324Z,797
2022-10-07T05:35:38.126Z,794
2022-10-07T05:36:29.922Z,787
2022-10-07T05:37:21.687Z,788
2022-10-07T05:38:13.501Z,790
2022-10-07T05:39:05.269Z,777
2022-10-07T05:39:57.096Z,775
2022-10-07T05:40:48.857Z,779
2022-10-07T05:41:44.937Z,785
2022-10-07T05:42:32.452Z,778
2022-10-07T05:43:24.256Z,780
2022-10-07T05:44:16.030Z,781
2022-10-07T05:45:07.825Z,788
2022-10-07T05:45:59.699Z,783
2022-10-07T05:46:51.416Z,779
2022-10-07T05:47:43.586Z,782
2022-10-07T05:48:38.996Z,789
2022-10-07T05:49:26.768Z,781
2022-10-07T05:50:18.572Z,777
2022-10-07T05:51:10.274Z,771
2022-10-07T05:52:02.162Z,777
2022-10-07T05:52:53.929Z,781
2022-10-07T05:53:45.756Z,784
2022-10-07T05:54:37.509Z,776
2022-10-07T05:55:29.318Z,776
2022-10-07T05:56:21.040Z,777
2022-10-07T05:57:12.913Z,777
2022-10-07T05:58:04.673Z,773
2022-10-07T05:58:56.482Z,771
2022-10-07T05:59:48.264Z,774
2022-10-07T06:00:40.069Z,772
2022-10-07T06:01:31.856Z,768
2022-10-07T06:02:23.844Z,768
2022-10-07T06:03:15.482Z,783
2022-10-07T06:04:07.248Z,778
2022-10-07T06:04:59.006Z,779
2022-10-07T06:05:50.743Z,777
2022-10-07T06:06:42.579Z,771
2022-10-07T06:07:34.393Z,786
2022-10-07T06:08:26.168Z,776
2022-10-07T06:09:17.979Z,777
2022-10-07T06:10:09.741Z,777
2022-10-07T06:11:01.455Z,774
2022-10-07T06:11:53.336Z,777
2022-10-07T06:12:45.127Z,777
2022-10-07T06:13:36.927Z,773
2022-10-07T06:14:28.703Z,764
2022-10-07T06:15:20.467Z,765
2022-10-07T06:16:12.302Z,763
2022-10-07T06:17:04.098Z,761
2022-10-07T06:17:55.878Z,763
2022-10-07T06:18:47.656Z,762
2022-10-07T06:19:39.456Z,759
2022-10-07T06:20:31.222Z,767
2022-10-07T06:21:23.034Z,771
2022-10-07T06:22:14.814Z,781
2022-10-07T06:23:06.603Z,770
2022-10-07T06:23:58.418Z,768
2022-10-07T06:24:50.200Z,763
2022-10-07T06:25:41.966Z,760
2022-10-07T06:26:33.791Z,756
2022-10-07T06:27:25.544Z,751
2022-10-07T06:28:17.470Z,765
2022-10-07T06:29:09.122Z,760
2022-10-07T06:30:00.886Z,760
2022-10-07T06:30:52.779Z,756
2022-10-07T06:31:44.525Z,756
2022-10-07T06:32:36.293Z,760
2022-10-07T06:33:28.096Z,750
2022-10-07T06:34:19.828Z,757
2022-10-07T06:35:11.678Z,754
2022-10-07T06:36:04.545Z,758
2022-10-07T06:36:55.258Z,763
2022-10-07T06:37:47.617Z,758
2022-10-07T06:38:38.861Z,763
2022-10-07T06:39:30.525Z,757
2022-10-07T06:40:22.403Z,757
2022-10-07T06:41:14.186Z,760
2022-10-07T06:42:06.009Z,763
2022-10-07T06:42:57.761Z,756
2022-10-07T06:43:49.580Z,758
2022-10-07T06:44:41.351Z,763
2022-10-07T06:45:33.227Z,768
2022-10-07T06:46:24.970Z,768
2022-10-07T06:47:16.718Z,765
2022-10-07T06:48:08.512Z,760
2022-10-07T06:49:00.292Z,758
2022-10-07T06:49:52.085Z,762
2022-10-07T06:50:43.878Z,745
2022-10-07T06:51:35.673Z,753
2022-10-07T06:52:27.481Z,752
2022-10-07T06:53:19.249Z,753
2022-10-07T06:54:10.957Z,753
2022-10-07T06:55:02.731Z,758
2022-10-07T06:55:54.628Z,766
2022-10-07T06:56:46.393Z,763
2022-10-07T06:57:45.789Z,755
2022-10-07T06:58:29.990Z,761
2022-10-07T06:59:21.792Z,747
2022-10-07T07:00:13.571Z,747
2022-10-07T07:01:05.468Z,751
2022-10-07T07:01:57.208Z,752
2022-10-07T07:02:49.119Z,754
2022-10-07T07:03:40.654Z,747
2022-10-07T07:04:32.527Z,751
2022-10-07T07:05:24.294Z,754
2022-10-07T07:06:16.107Z,753
2022-10-07T07:07:07.869Z,745
2022-10-07T07:07:59.668Z,757
2022-10-07T07:08:51.443Z,754
2022-10-07T07:09:43.253Z,761
2022-10-07T07:10:35.058Z,755
2022-10-07T07:11:26.822Z,758
2022-10-07T07:12:18.606Z,757
2022-10-07T07:13:10.418Z,752
2022-10-07T07:14:02.194Z,759
2022-10-07T07:14:53.977Z,764
2022-10-07T07:15:45.785Z,766
2022-10-07T07:16:37.590Z,759
2022-10-07T07:17:29.335Z,758
2022-10-07T07:18:21.069Z,758
2022-10-07T07:19:12.912Z,764
2022-10-07T07:20:04.724Z,762
2022-10-07T07:20:56.514Z,755
2022-10-07T07:21:50.562Z,759
2022-10-07T07:22:40.073Z,751
2022-10-07T07:23:31.862Z,761
2022-10-07T07:24:23.645Z,752
2022-10-07T07:25:15.456Z,756
2022-10-07T07:26:07.218Z,751
2022-10-07T07:26:59.030Z,759
2022-10-07T07:27:56.771Z,752
2022-10-07T07:28:42.644Z,756
2022-10-07T07:29:34.388Z,750
2022-10-07T07:30:26.291Z,752
2022-10-07T07:31:18.059Z,754
2022-10-07T07:32:09.750Z,747
2022-10-07T07:33:01.433Z,752
2022-10-07T07:33:53.325Z,752
2022-10-07T07:34:45.133Z,757
2022-10-07T07:35:36.911Z,751
2022-10-07T07:36:28.687Z,754
2022-10-07T07:37:20.421Z,755
2022-10-07T07:38:12.264Z,751
2022-10-07T07:39:04.061Z,756
2022-10-07T07:39:55.828Z,756
2022-10-07T07:40:47.621Z,763
2022-10-07T07:41:39.415Z,751
2022-10-07T07:42:31.200Z,752
2022-10-07T07:43:23.036Z,752
2022-10-07T07:44:14.786Z,749
2022-10-07T07:45:06.464Z,747
2022-10-07T07:45:58.403Z,758
2022-10-07T07:46:50.135Z,754
2022-10-07T07:47:42.038Z,761
2022-10-07T07:48:33.708Z,756
2022-10-07T07:49:25.520Z,746
2022-10-07T07:50:17.293Z,750
2022-10-07T07:51:09.093Z,753
2022-10-07T07:52:00.831Z,752
2022-10-07T07:52:57.108Z,752
2022-10-07T07:53:44.457Z,758
2022-10-07T07:54:36.270Z,757
2022-10-07T07:55:28.033Z,756
2022-10-07T07:56:19.830Z,744
2022-10-07T07:57:11.630Z,755
2022-10-07T07:58:03.406Z,759
2022-10-07T07:58:55.186Z,758
2022-10-07T07:59:46.996Z,751
2022-10-07T08:00:38.775Z,744
2022-10-07T08:01:30.531Z,756
2022-10-07T08:02:22.423Z,759
2022-10-07T08:03:14.142Z,754
2022-10-07T08:04:05.921Z,760
2022-10-07T08:04:57.724Z,761
2022-10-07T08:05:49.493Z,751
2022-10-07T08:06:41.302Z,747
2022-10-07T08:07:33.082Z,755
2022-10-07T08:08:24.876Z,748
2022-10-07T08:09:16.646Z,757
2022-10-07T08:10:08.459Z,765
2022-10-07T08:11:00.241Z,763
2022-10-07T08:11:52.034Z,762
2022-10-07T08:12:43.808Z,763
2022-10-07T08:13:35.610Z,763
2022-10-07T08:14:27.393Z,772
2022-10-07T08:15:19.192Z,782
2022-10-07T08:16:10.953Z,784
2022-10-07T08:17:02.742Z,774
2022-10-07T08:17:54.567Z,769
2022-10-07T08:18:46.254Z,773
2022-10-07T08:19:38.131Z,778
2022-10-07T08:20:29.931Z,769
2022-10-07T08:21:21.705Z,770
2022-10-07T08:22:13.538Z,770
2022-10-07T08:23:05.305Z,774
2022-10-07T08:23:57.114Z,773
2022-10-07T08:24:48.897Z,754
2022-10-07T08:25:40.616Z,766
2022-10-07T08:26:32.469Z,771
2022-10-07T08:27:24.272Z,778
2022-10-07T08:28:16.100Z,770
2022-10-07T08:29:07.847Z,763
2022-10-07T08:29:59.644Z,764
2022-10-07T08:30:51.492Z,780
2022-10-07T08:31:43.213Z,775
2022-10-07T08:32:35.018Z,767
2022-10-07T08:33:26.796Z,771
2022-10-07T08:34:18.608Z,771
2022-10-07T08:35:10.378Z,780
2022-10-07T08:36:02.182Z,770
2022-10-07T08:36:53.969Z,767
2022-10-07T08:37:46.033Z,773
2022-10-07T08:38:37.553Z,770
2022-10-07T08:39:29.345Z,787
2022-10-07T08:40:21.045Z,783
2022-10-07T08:41:12.930Z,785
2022-10-07T08:42:04.733Z,788
2022-10-07T08:42:56.525Z,777
2022-10-07T08:43:48.326Z,784
2022-10-07T08:44:40.104Z,787
2022-10-07T08:45:31.979Z,780
2022-10-07T08:46:23.714Z,769
2022-10-07T08:47:15.464Z,788
2022-10-07T08:48:07.256Z,788
2022-10-07T08:48:59.058Z,790
2022-10-07T08:49:50.812Z,787
2022-10-07T08:50:42.630Z,775
2022-10-07T08:51:34.427Z,786
2022-10-07T08:52:26.217Z,775
2022-10-07T08:53:18.026Z,780
2022-10-07T08:54:09.794Z,774
2022-10-07T08:55:01.577Z,789
2022-10-07T08:55:53.413Z,794
2022-10-07T08:56:45.196Z,786
2022-10-07T08:57:36.970Z,795
2022-10-07T08:58:28.777Z,801
2022-10-07T08:59:20.531Z,786
2022-10-07T09:00:12.389Z,772
2022-10-07T09:01:04.200Z,783
2022-10-07T09:01:55.961Z,794
2022-10-07T09:02:47.767Z,781
2022-10-07T09:03:39.542Z,786
2022-10-07T09:04:31.222Z,789
2022-10-07T09:05:23.129Z,795
2022-10-07T09:06:14.917Z,782
2022-10-07T09:07:06.705Z,794
2022-10-07T09:07:58.486Z,799
2022-10-07T09:08:50.277Z,796
2022-10-07T09:09:42.061Z,785
2022-10-07T09:10:33.876Z,792
2022-10-07T09:11:25.693Z,795
2022-10-07T09:12:17.454Z,806
2022-10-07T09:13:09.232Z,789
2022-10-07T09:14:00.991Z,789
2022-10-07T09:14:52.795Z,787
2022-10-07T09:15:44.659Z,780
2022-10-07T09:16:36.381Z,784
2022-10-07T09:17:32.823Z,788
2022-10-07T09:18:19.961Z,787
2022-10-07T09:19:11.766Z,788
2022-10-07T09:20:03.505Z,792
2022-10-07T09:20:55.347Z,786
2022-10-07T09:21:47.133Z,788
2022-10-07T09:22:38.931Z,799
2022-10-07T09:23:30.634Z,793
2022-10-07T09:24:22.522Z,780
2022-10-07T09:25:14.290Z,804
2022-10-07T09:26:06.092Z,803
2022-10-07T09:26:57.855Z,804
2022-10-07T09:27:49.678Z,778
2022-10-07T09:28:41.523Z,781
2022-10-07T09:29:33.263Z,788
2022-10-07T09:30:25.061Z,782
2022-10-07T09:31:16.882Z,782
2022-10-07T09:32:08.617Z,778
2022-10-07T09:33:00.436Z,776
2022-10-07T09:33:52.208Z,772
2022-10-07T09:34:44.011Z,778
2022-10-07T09:35:35.801Z,760
2022-10-07T09:36:27.598Z,755
2022-10-07T09:37:19.388Z,763
2022-10-07T09:38:11.135Z,754
2022-10-07T09:39:02.966Z,764
2022-10-07T09:39:54.779Z,761
2022-10-07T09:40:46.549Z,745
2022-10-07T09:41:38.365Z,749
2022-10-07T09:42:30.145Z,750
2022-10-07T09:43:21.940Z,762
2022-10-07T09:44:13.712Z,765
2022-10-07T09:45:05.527Z,752
2022-10-07T09:45:57.322Z,757
2022-10-07T09:46:49.189Z,759
2022-10-07T09:47:40.792Z,749
2022-10-07T09:48:32.699Z,749
2022-10-07T09:49:24.553Z,755
2022-10-07T09:50:16.289Z,750
2022-10-07T09:51:08.051Z,748
2022-10-07T09:51:59.872Z,737
2022-10-07T09:52:51.643Z,744
2022-10-07T09:53:43.456Z,739
2022-10-07T09:54:35.232Z,731
2022-10-07T09:55:27.031Z,726
2022-10-07T09:56:18.820Z,730
2022-10-07T09:57:10.617Z,728
2022-10-07T09:58:02.410Z,726
2022-10-07T09:58:54.211Z,731
2022-10-07T09:59:45.981Z,726
2022-10-07T10:00:37.785Z,722
2022-10-07T10:01:29.574Z,719
2022-10-07T10:02:21.460Z,720
2022-10-07T10:03:13.193Z,714
2022-10-07T10:04:04.948Z,710
2022-10-07T10:04:56.743Z,711
2022-10-07T10:05:48.567Z,714
2022-10-07T10:06:40.322Z,705
2022-10-07T10:07:32.129Z,677
2022-10-07T10:08:23.894Z,623
2022-10-07T10:09:20.064Z,598
2022-10-07T10:10:07.466Z,569
2022-10-07T10:10:59.277Z,550
2022-10-07T10:11:50.990Z,520
2022-10-07T10:12:42.943Z,514
2022-10-07T10:13:34.614Z,507
2022-10-07T10:14:26.383Z,504
2022-10-07T10:15:18.157Z,526
2022-10-07T10:16:09.962Z,488
2022-10-07T10:17:01.619Z,473
2022-10-07T10:17:53.487Z,486
2022-10-07T10:18:45.252Z,489
2022-10-07T10:19:37.497Z,471
2022-10-07T10:20:28.794Z,483
2022-10-07T10:21:20.616Z,467
2022-10-07T10:22:12.346Z,461
2022-10-07T10:23:04.132Z,470
2022-10-07T10:23:55.887Z,469
2022-10-07T10:24:47.660Z,461
2022-10-07T10:25:39.429Z,456
2022-10-07T10:26:33.998Z,453
2022-10-07T10:27:22.961Z,459
2022-10-07T10:28:14.794Z,454
2022-10-07T10:29:06.496Z,454
2022-10-07T10:29:58.271Z,453
2022-10-07T10:30:50.098Z,452
2022-10-07T10:31:41.832Z,449
2022-10-07T10:32:33.570Z,445
2022-10-07T10:33:25.332Z,444
2022-10-07T10:34:17.069Z,436
2022-10-07T10:35:08.861Z,443
2022-10-07T10:36:00.591Z,446
2022-10-07T10:36:52.374Z,447
2022-10-07T10:37:44.142Z,446
2022-10-07T10:38:35.916Z,443
2022-10-07T10:39:27.637Z,449
2022-10-07T10:40:19.427Z,443
2022-10-07T10:41:11.075Z,443
2022-10-07T10:42:02.927Z,443
2022-10-07T10:42:54.685Z,447
2022-10-07T10:43:46.450Z,442
2022-10-07T10:44:38.217Z,442
2022-10-07T10:45:29.935Z,446
2022-10-07T10:46:21.714Z,440
2022-10-07T10:47:13.462Z,440
2022-10-07T10:48:05.191Z,447
2022-10-07T10:48:56.973Z,441
2022-10-07T10:49:48.709Z,440
2022-10-07T10:50:40.480Z,445
2022-10-07T10:51:32.201Z,440
2022-10-07T10:52:23.986Z,437
2022-10-07T10:53:15.729Z,437
2022-10-07T10:54:07.521Z,440
2022-10-07T10:54:59.265Z,451
2022-10-07T10:55:51.025Z,452
2022-10-07T10:56:42.804Z,445
2022-10-07T10:57:34.550Z,443
2022-10-07T10:58:26.327Z,441
2022-10-07T10:59:18.083Z,444
2022-10-07T11:00:09.856Z,438
2022-10-07T11:01:01.555Z,429
2022-10-07T11:01:53.454Z,448
2022-10-07T11:02:45.554Z,427
2022-10-07T11:03:36.905Z,420
2022-10-07T11:04:28.684Z,420
2022-10-07T11:05:20.467Z,433
2022-10-07T11:06:12.205Z,433
2022-10-07T11:07:03.965Z,438
2022-10-07T11:07:55.738Z,441
2022-10-07T11:08:47.502Z,431
2022-10-07T11:09:39.267Z,437
2022-10-07T11:10:30.936Z,437
2022-10-07T11:11:22.811Z,433
2022-10-07T11:12:14.559Z,449
2022-10-07T11:13:06.330Z,449
2022-10-07T11:13:58.092Z,446
2022-10-07T11:14:49.871Z,446
2022-10-07T11:15:41.690Z,438
2022-10-07T11:16:33.410Z,438
2022-10-07T11:17:25.145Z,444
2022-10-07T11:18:16.942Z,438
2022-10-07T11:19:08.690Z,435
2022-10-07T11:20:00.549Z,443
2022-10-07T11:20:57.197Z,439
2022-10-07T11:21:43.997Z,439
2022-10-07T11:22:35.747Z,435
2022-10-07T11:23:27.521Z,441
2022-10-07T11:24:19.288Z,432
2022-10-07T11:25:11.049Z,432
2022-10-07T11:26:02.800Z,424
2022-10-07T11:26:54.580Z,433
2022-10-07T11:27:46.329Z,426
2022-10-07T11:28:38.176Z,426
2022-10-07T11:29:29.868Z,428
2022-10-07T11:30:21.625Z,443
2022-10-07T11:31:13.454Z,435
2022-10-07T11:32:05.204Z,437
2022-10-07T11:32:56.952Z,439
2022-10-07T11:33:48.753Z,438
2022-10-07T11:34:40.515Z,437
2022-10-07T11:35:32.296Z,446
2022-10-07T11:36:24.050Z,441
2022-10-07T11:37:15.833Z,430
2022-10-07T11:38:07.617Z,436
2022-10-07T11:38:59.386Z,439
2022-10-07T11:39:51.091Z,435
2022-10-07T11:40:42.935Z,441
2022-10-07T11:41:34.681Z,439
2022-10-07T11:42:26.463Z,434
2022-10-07T11:43:18.215Z,437
2022-10-07T11:44:10.011Z,425
2022-10-07T11:45:01.672Z,430
2022-10-07T11:45:53.576Z,431
2022-10-07T11:46:45.386Z,446
2022-10-07T11:47:37.115Z,437
2022-10-07T11:48:28.865Z,433